createdAt,value
2022-10-15T00:00:39.840Z,29.38
2022-10-15T00:03:06.779Z,26.25
2022-10-15T00:05:36.096Z,34.20
2022-10-15T00:08:02.723Z,26.47
2022-10-15T00:10:29.413Z,30.77
2022-10-15T00:12:56.245Z,28.90
2022-10-15T00:15:22.949Z,32.10
2022-10-15T00:17:49.713Z,31.27
2022-10-15T00:20:16.713Z,31.20
2022-10-15T00:22:43.413Z,35.15
2022-10-15T00:25:10.225Z,35.55
2022-10-15T00:27:37.313Z,36.80
2022-10-15T00:30:05.955Z,32.45
2022-10-15T00:32:32.997Z,33.30
2022-10-15T00:34:59.702Z,33.97
2022-10-15T00:37:26.349Z,28.95
2022-10-15T00:39:53.049Z,30.52
2022-10-15T00:42:19.918Z,32.60
2022-10-15T00:44:58.099Z,32.38
2022-10-15T00:47:51.652Z,31.02
2022-10-15T00:50:26.918Z,30.67
2022-10-15T00:53:08.395Z,35.15
2022-10-15T00:55:40.734Z,37.20
2022-10-15T01:00:43.193Z,34.28
2022-10-15T01:03:12.647Z,37.45
2022-10-15T01:05:40.664Z,31.55
2022-10-15T01:08:07.232Z,34.55
2022-10-15T01:10:56.553Z,31.80
2022-10-15T01:13:38.879Z,33.13
2022-10-15T01:16:24.100Z,38.25
2022-10-15T01:19:07.340Z,32.80
2022-10-15T01:21:33.943Z,32.60
2022-10-15T01:24:06.782Z,31.08
2022-10-15T01:27:12.141Z,31.65
2022-10-15T01:30:16.752Z,31.33
2022-10-15T01:33:04.829Z,32.28
2022-10-15T01:35:47.193Z,31.70
2022-10-15T01:38:25.363Z,33.58
2022-10-15T01:41:00.801Z,30.38
2022-10-15T01:43:51.115Z,34.05
2022-10-15T01:48:54.270Z,35.03
2022-10-15T01:51:23.849Z,33.47
2022-10-15T01:53:52.202Z,37.80
2022-10-15T01:56:23.167Z,35.78
2022-10-15T01:58:52.822Z,35.88
2022-10-15T02:01:19.526Z,40.95
2022-10-15T02:03:51.431Z,35.13
2022-10-15T02:06:28.792Z,39.35
2022-10-15T02:09:25.540Z,35.45
2022-10-15T02:12:14.811Z,38.80
2022-10-15T02:14:53.100Z,33.08
2022-10-15T02:17:50.418Z,34.20
2022-10-15T02:20:41.840Z,32.95
2022-10-15T02:23:17.749Z,33.25
2022-10-15T02:25:46.110Z,37.67
2022-10-15T02:28:15.534Z,39.05
2022-10-15T02:30:43.741Z,37.22
2022-10-15T02:33:11.189Z,34.42
2022-10-15T02:35:38.472Z,37.30
2022-10-15T02:38:08.742Z,33.13
2022-10-15T02:43:08.506Z,36.17
2022-10-15T02:45:36.483Z,35.78
2022-10-15T02:48:03.518Z,32.15
2022-10-15T02:50:30.120Z,37.78
2022-10-15T02:52:56.778Z,34.50
2022-10-15T02:55:23.414Z,33.45
2022-10-15T02:57:50.093Z,33.13
2022-10-15T03:00:18.445Z,34.53
2022-10-15T03:02:45.924Z,33.28
2022-10-15T03:05:12.886Z,35.28
2022-10-15T03:07:39.574Z,36.20
2022-10-15T03:10:06.708Z,32.92
2022-10-15T03:12:33.474Z,34.13
2022-10-15T03:15:00.120Z,33.85
2022-10-15T03:17:26.899Z,33.45
2022-10-15T03:19:53.568Z,34.30
2022-10-15T03:22:20.273Z,30.92
2022-10-15T03:24:46.880Z,30.77
2022-10-15T03:27:13.525Z,31.48
2022-10-15T03:29:40.165Z,30.90
2022-10-15T03:32:06.764Z,36.75
2022-10-15T03:34:33.379Z,33.17
2022-10-15T03:37:00.014Z,32.72
2022-10-15T03:39:26.653Z,32.33
2022-10-15T03:41:53.992Z,30.73
2022-10-15T03:44:20.877Z,34.00
2022-10-15T03:46:47.521Z,37.63
2022-10-15T03:49:14.221Z,29.35
2022-10-15T03:51:40.819Z,28.83
2022-10-15T03:54:07.455Z,33.30
2022-10-15T03:56:34.066Z,32.88
2022-10-15T03:59:00.749Z,32.67
2022-10-15T04:01:27.466Z,32.17
2022-10-15T04:03:54.492Z,33.60
2022-10-15T04:06:21.276Z,32.58
2022-10-15T04:08:48.113Z,33.22
2022-10-15T04:11:14.817Z,31.10
2022-10-15T04:13:41.406Z,32.92
2022-10-15T04:16:08.082Z,28.65
2022-10-15T04:18:35.237Z,32.28
2022-10-15T04:21:02.205Z,37.17
2022-10-15T04:23:28.856Z,31.15
2022-10-15T04:25:59.370Z,31.67
2022-10-15T04:28:26.252Z,33.50
2022-10-15T04:30:57.289Z,36.17
2022-10-15T04:33:24.302Z,31.27
2022-10-15T04:36:07.064Z,29.83
2022-10-15T04:38:34.501Z,33.35
2022-10-15T04:41:03.832Z,27.38
2022-10-15T04:43:30.997Z,30.17
2022-10-15T04:46:02.310Z,28.63
2022-10-15T04:48:30.940Z,30.33
2022-10-15T04:51:08.660Z,28.05
2022-10-15T04:53:35.594Z,31.30
2022-10-15T04:56:04.569Z,27.65
2022-10-15T04:58:32.895Z,29.42
2022-10-15T05:01:01.417Z,30.13
2022-10-15T05:03:28.131Z,32.15
2022-10-15T05:05:59.547Z,29.60
2022-10-15T05:08:26.156Z,31.48
2022-10-15T05:10:52.745Z,24.90
2022-10-15T05:13:19.388Z,32.13
2022-10-15T05:15:46.016Z,26.90
2022-10-15T05:18:12.633Z,28.15
2022-10-15T05:20:39.297Z,31.92
2022-10-15T05:23:06.370Z,28.80
2022-10-15T05:25:33.019Z,25.13
2022-10-15T05:27:59.879Z,25.02
2022-10-15T05:30:26.521Z,28.23
2022-10-15T05:32:54.408Z,31.65
2022-10-15T05:35:21.764Z,26.20
2022-10-15T05:37:49.546Z,29.48
2022-10-15T05:40:19.613Z,28.70
2022-10-15T05:45:23.988Z,28.40
2022-10-15T05:47:54.880Z,26.75
2022-10-15T05:50:22.513Z,27.23
2022-10-15T05:52:49.206Z,28.30
2022-10-15T05:55:15.960Z,30.88
2022-10-15T05:57:42.561Z,26.77
2022-10-15T06:00:09.853Z,31.58
2022-10-15T06:02:36.573Z,26.88
2022-10-15T06:05:03.770Z,26.70
2022-10-15T06:07:32.193Z,25.60
2022-10-15T06:09:58.768Z,27.95
2022-10-15T06:12:25.408Z,24.75
2022-10-15T06:14:52.046Z,26.75
2022-10-15T06:17:18.832Z,28.75
2022-10-15T06:19:45.466Z,23.95
2022-10-15T06:22:12.129Z,23.95
2022-10-15T06:24:38.770Z,28.10
2022-10-15T06:27:05.386Z,29.00
2022-10-15T06:29:32.006Z,25.83
2022-10-15T06:31:58.661Z,27.02
2022-10-15T06:34:25.249Z,25.45
2022-10-15T06:36:52.109Z,27.17
2022-10-15T06:39:18.771Z,27.27
2022-10-15T06:41:45.362Z,25.95
2022-10-15T06:44:12.028Z,20.77
2022-10-15T06:46:38.634Z,25.05
2022-10-15T06:49:05.382Z,21.88
2022-10-15T06:51:32.007Z,23.33
2022-10-15T06:53:59.006Z,27.55
2022-10-15T06:56:25.676Z,23.02
2022-10-15T06:58:52.292Z,21.45
2022-10-15T07:01:18.962Z,22.75
2022-10-15T07:03:50.401Z,22.65
2022-10-15T07:06:17.785Z,20.33
2022-10-15T07:08:45.341Z,23.52
2022-10-15T07:11:12.133Z,19.08
2022-10-15T07:13:38.901Z,21.45
2022-10-15T07:16:10.922Z,22.45
2022-10-15T07:18:38.542Z,20.98
2022-10-15T07:21:07.852Z,20.15
2022-10-15T07:23:34.492Z,22.07
2022-10-15T07:26:01.869Z,24.75
2022-10-15T07:28:28.588Z,21.13
2022-10-15T07:30:59.496Z,21.45
2022-10-15T07:33:26.254Z,20.55
2022-10-15T07:35:52.829Z,21.40
2022-10-15T07:38:19.443Z,20.85
2022-10-15T07:40:46.177Z,20.48
2022-10-15T07:43:13.137Z,21.67
2022-10-15T07:45:40.205Z,20.42
2022-10-15T07:48:06.887Z,21.95
2022-10-15T07:50:35.592Z,21.25
2022-10-15T07:53:03.800Z,18.58
2022-10-15T07:55:30.413Z,21.25
2022-10-15T07:57:58.435Z,18.60
2022-10-15T08:00:25.481Z,20.80
2022-10-15T08:02:52.320Z,18.60
2022-10-15T08:05:18.979Z,18.48
2022-10-15T08:07:45.610Z,20.33
2022-10-15T08:10:13.484Z,16.60
2022-10-15T08:12:40.197Z,16.95
2022-10-15T08:15:07.404Z,19.20
2022-10-15T08:17:34.251Z,18.92
2022-10-15T08:20:01.036Z,17.35
2022-10-15T08:22:27.839Z,16.35
2022-10-15T08:24:54.689Z,16.17
2022-10-15T08:27:21.373Z,20.65
2022-10-15T08:29:48.080Z,17.63
2022-10-15T08:32:14.705Z,16.33
2022-10-15T08:34:41.339Z,16.90
2022-10-15T08:37:08.052Z,23.35
2022-10-15T08:39:35.638Z,17.38
2022-10-15T08:42:05.863Z,18.13
2022-10-15T08:44:46.716Z,18.95
2022-10-15T08:47:28.860Z,15.85
2022-10-15T08:50:01.089Z,17.02
2022-10-15T08:52:49.474Z,14.40
2022-10-15T08:55:19.274Z,14.32
2022-10-15T08:57:49.165Z,14.57
2022-10-15T09:00:29.458Z,16.45
2022-10-15T09:03:36.460Z,14.15
2022-10-15T09:06:31.518Z,14.82
2022-10-15T09:09:12.778Z,14.70
2022-10-15T09:11:48.525Z,13.65
2022-10-15T09:14:19.804Z,15.27
2022-10-15T09:16:59.461Z,13.48
2022-10-15T09:19:35.453Z,10.98
2022-10-15T09:22:02.953Z,12.93
2022-10-15T09:24:41.668Z,14.23
2022-10-15T09:27:31.837Z,12.23
2022-10-15T09:30:36.458Z,13.13
2022-10-15T09:33:11.997Z,11.38
2022-10-15T09:35:59.529Z,13.05
2022-10-15T09:38:47.993Z,10.82
2022-10-15T09:41:44.505Z,10.18
2022-10-15T09:44:14.772Z,10.05
2022-10-15T09:46:53.482Z,10.05
2022-10-15T09:49:31.216Z,9.90
2022-10-15T09:52:15.477Z,10.02
2022-10-15T09:55:12.471Z,9.88
2022-10-15T09:57:46.485Z,10.18
2022-10-15T10:00:21.453Z,8.95
2022-10-15T10:03:14.326Z,10.63
2022-10-15T10:05:48.453Z,11.55
2022-10-15T10:08:24.258Z,9.57
2022-10-15T10:11:05.478Z,9.02
2022-10-15T10:13:46.800Z,9.30
2022-10-15T10:16:29.476Z,10.05
2022-10-15T10:19:12.518Z,8.82
2022-10-15T10:21:49.465Z,9.15
2022-10-15T10:24:31.772Z,7.70
2022-10-15T10:27:06.463Z,9.82
2022-10-15T10:29:39.209Z,9.13
2022-10-15T10:32:34.457Z,8.40
2022-10-15T10:35:10.507Z,7.43
2022-10-15T10:37:49.471Z,7.65
2022-10-15T10:40:35.432Z,8.73
2022-10-15T10:43:25.480Z,8.85
2022-10-15T10:45:59.448Z,9.57
2022-10-15T10:48:36.478Z,10.43
2022-10-15T10:51:24.871Z,11.10
2022-10-15T10:54:10.589Z,9.60
2022-10-15T10:56:44.194Z,9.43
2022-10-15T10:59:33.561Z,9.50
2022-10-15T11:02:00.439Z,7.07
2022-10-15T11:04:39.480Z,7.03
2022-10-15T11:07:33.633Z,7.65
2022-10-15T11:10:10.986Z,7.28
2022-10-15T11:13:19.612Z,7.57
2022-10-15T11:16:02.551Z,7.05
2022-10-15T11:19:06.316Z,6.40
2022-10-15T11:21:54.224Z,6.25
2022-10-15T11:24:49.559Z,6.05
2022-10-15T11:28:02.479Z,5.65
2022-10-15T11:30:54.473Z,7.93
2022-10-15T11:33:46.563Z,4.97
2022-10-15T11:36:28.489Z,5.40
2022-10-15T11:39:24.477Z,5.25
2022-10-15T11:41:59.853Z,5.55
2022-10-15T11:45:39.482Z,5.65
2022-10-15T11:48:18.452Z,6.07
2022-10-15T11:51:06.460Z,5.25
2022-10-15T11:53:38.846Z,4.82
2022-10-15T11:56:30.304Z,5.50
2022-10-15T11:59:04.303Z,6.78
2022-10-15T12:01:50.470Z,4.88
2022-10-15T12:04:41.272Z,4.78
2022-10-15T12:07:29.476Z,5.07
2022-10-15T12:10:05.740Z,4.63
2022-10-15T12:12:56.476Z,4.68
2022-10-15T12:15:57.145Z,6.00
2022-10-15T12:18:50.627Z,4.55
2022-10-15T12:21:53.384Z,5.40
2022-10-15T12:24:44.484Z,6.50
2022-10-15T12:27:18.694Z,5.05
2022-10-15T12:30:23.470Z,5.20
2022-10-15T12:32:50.988Z,4.72
2022-10-15T12:35:44.459Z,4.30
2022-10-15T12:38:30.855Z,4.95
2022-10-15T12:41:08.476Z,5.47
2022-10-15T12:43:38.945Z,4.07
2022-10-15T12:46:07.523Z,4.13
2022-10-15T12:48:47.487Z,6.03
2022-10-15T12:51:17.019Z,3.47
2022-10-15T12:53:51.519Z,3.83
2022-10-15T12:56:18.041Z,3.22
2022-10-15T12:58:48.477Z,4.18
2022-10-15T13:01:21.572Z,3.72
2022-10-15T13:03:51.269Z,3.53
2022-10-15T13:06:20.678Z,5.18
2022-10-15T13:09:05.459Z,2.85
2022-10-15T13:11:37.018Z,3.35
2022-10-15T13:14:26.501Z,5.28
2022-10-15T13:17:00.509Z,4.73
2022-10-15T13:19:40.903Z,5.22
2022-10-15T13:22:28.544Z,3.75
2022-10-15T13:24:56.032Z,5.25
2022-10-15T13:27:25.503Z,3.47
2022-10-15T13:30:07.550Z,5.00
2022-10-15T13:32:49.996Z,3.03
2022-10-15T13:35:30.532Z,3.33
2022-10-15T13:37:58.354Z,4.35
2022-10-15T13:40:34.488Z,5.30
2022-10-15T13:43:17.602Z,5.50
2022-10-15T13:46:01.485Z,2.40
2022-10-15T13:48:30.842Z,3.95
2022-10-15T13:51:09.513Z,3.10
2022-10-15T13:53:40.061Z,3.42
2022-10-15T13:56:31.579Z,4.68
2022-10-15T13:59:00.133Z,3.70
2022-10-15T14:01:28.356Z,2.33
2022-10-15T14:04:04.492Z,2.95
2022-10-15T14:06:42.554Z,2.45
2022-10-15T14:09:25.485Z,2.88
2022-10-15T14:11:52.231Z,2.42
2022-10-15T14:14:53.518Z,3.00
2022-10-15T14:17:33.498Z,4.90
2022-10-15T14:22:58.588Z,2.72
2022-10-15T14:25:26.586Z,3.20
2022-10-15T14:27:53.395Z,5.85
2022-10-15T14:30:45.480Z,2.90
2022-10-15T14:36:46.537Z,3.38
2022-10-15T14:39:41.517Z,4.60
2022-10-15T14:42:27.424Z,3.53
2022-10-15T14:45:02.533Z,2.92
2022-10-15T14:47:32.725Z,3.00
2022-10-15T14:52:42.526Z,3.95
2022-10-15T14:55:35.490Z,6.35
2022-10-15T14:58:08.442Z,5.57
2022-10-15T15:00:53.495Z,4.20
2022-10-15T15:03:25.980Z,5.65
2022-10-15T15:06:03.509Z,4.15
2022-10-15T15:08:30.098Z,3.67
2022-10-15T15:11:07.486Z,3.78
2022-10-15T15:13:51.498Z,4.28
2022-10-15T15:16:25.530Z,5.22
2022-10-15T15:18:58.878Z,3.72
2022-10-15T15:21:32.496Z,3.85
2022-10-15T15:23:59.081Z,7.53
2022-10-15T15:26:25.651Z,4.90
2022-10-15T15:28:58.714Z,4.80
2022-10-15T15:31:31.541Z,6.82
2022-10-15T15:33:58.910Z,5.78
2022-10-15T15:36:25.485Z,5.65
2022-10-15T15:38:59.509Z,5.30
2022-10-15T15:41:26.175Z,5.80
2022-10-15T15:43:54.838Z,6.40
2022-10-15T15:46:27.505Z,7.35
2022-10-15T15:48:54.130Z,6.90
2022-10-15T15:51:25.748Z,5.47
2022-10-15T15:53:59.560Z,9.25
2022-10-15T15:56:26.159Z,7.32
2022-10-15T15:58:52.885Z,8.23
2022-10-15T16:01:26.508Z,7.25
2022-10-15T16:03:59.537Z,15.65
2022-10-15T16:06:32.507Z,11.65
2022-10-15T16:08:59.535Z,11.00
2022-10-15T16:11:26.297Z,9.93
2022-10-15T16:13:59.521Z,8.63
2022-10-15T16:16:33.564Z,8.93
2022-10-15T16:19:13.548Z,8.50
2022-10-15T16:21:46.540Z,9.13
2022-10-15T16:24:26.505Z,9.30
2022-10-15T16:27:06.540Z,8.20
2022-10-15T16:29:33.239Z,9.35
2022-10-15T16:31:59.810Z,9.10
2022-10-15T16:34:32.559Z,9.68
2022-10-15T16:36:59.187Z,11.02
2022-10-15T16:39:25.793Z,11.52
2022-10-15T16:41:58.566Z,10.40
2022-10-15T16:44:25.185Z,12.68
2022-10-15T16:46:51.769Z,11.30
2022-10-15T16:49:24.535Z,9.20
2022-10-15T16:51:51.146Z,9.98
2022-10-15T16:54:17.924Z,14.38
2022-10-15T16:56:52.735Z,10.55
2022-10-15T16:59:26.605Z,11.85
2022-10-15T17:01:53.497Z,11.70
2022-10-15T17:04:20.166Z,13.32
2022-10-15T17:06:53.560Z,14.85
2022-10-15T17:09:20.239Z,12.77
2022-10-15T17:11:53.639Z,12.60
2022-10-15T17:14:20.492Z,15.82
2022-10-15T17:17:08.560Z,13.60
2022-10-15T17:19:35.195Z,16.33
2022-10-15T17:22:08.558Z,14.23
2022-10-15T17:24:35.132Z,13.32
2022-10-15T17:27:01.765Z,17.60
2022-10-15T17:29:34.541Z,13.25
2022-10-15T17:32:02.768Z,16.45
2022-10-15T17:34:29.793Z,15.88
2022-10-15T17:37:03.584Z,15.63
2022-10-15T17:39:30.186Z,17.95
2022-10-15T17:42:03.492Z,14.70
2022-10-15T17:44:30.157Z,14.35
2022-10-15T17:47:03.563Z,14.65
2022-10-15T17:49:30.188Z,15.15
2022-10-15T17:51:56.786Z,12.82
2022-10-15T17:54:29.559Z,13.73
2022-10-15T17:56:56.150Z,16.58
2022-10-15T17:59:29.497Z,16.35
2022-10-15T18:01:59.614Z,16.30
2022-10-15T18:04:36.569Z,14.80
2022-10-15T18:07:03.142Z,14.70
2022-10-15T18:09:36.566Z,15.45
2022-10-15T18:12:09.560Z,15.57
2022-10-15T18:14:36.840Z,14.55
2022-10-15T18:17:24.732Z,15.75
2022-10-15T18:19:51.484Z,16.17
2022-10-15T18:22:24.557Z,17.00
2022-10-15T18:24:51.135Z,16.52
2022-10-15T18:27:24.805Z,14.75
2022-10-15T18:29:51.538Z,15.10
2022-10-15T18:32:24.676Z,16.80
2022-10-15T18:34:57.543Z,17.58
2022-10-15T18:37:24.446Z,15.38
2022-10-15T18:39:57.649Z,14.68
2022-10-15T18:42:24.512Z,14.27
2022-10-15T18:44:57.567Z,13.02
2022-10-15T18:47:30.510Z,13.23
2022-10-15T18:50:03.557Z,12.30
2022-10-15T18:52:40.284Z,11.80
2022-10-15T18:55:08.300Z,13.55
2022-10-15T18:57:41.582Z,13.80
2022-10-15T19:00:08.769Z,15.68
2022-10-15T19:02:35.360Z,11.60
2022-10-15T19:05:08.580Z,11.20
2022-10-15T19:07:35.217Z,11.65
2022-10-15T19:10:01.850Z,11.50
2022-10-15T19:12:35.578Z,11.95
2022-10-15T19:15:02.177Z,11.18
2022-10-15T19:17:36.517Z,11.95
2022-10-15T19:20:17.580Z,12.15
2022-10-15T19:22:45.331Z,11.73
2022-10-15T19:25:18.484Z,10.82
2022-10-15T19:27:45.126Z,12.35
2022-10-15T19:30:18.516Z,11.77
2022-10-15T19:32:47.188Z,10.63
2022-10-15T19:35:13.957Z,10.30
2022-10-15T19:37:47.509Z,11.15
2022-10-15T19:40:14.130Z,10.80
2022-10-15T19:42:40.710Z,11.25
2022-10-15T19:47:49.010Z,11.55
2022-10-15T19:50:22.601Z,12.07
2022-10-15T19:52:49.241Z,11.70
2022-10-15T19:55:15.846Z,11.02
2022-10-15T19:57:48.584Z,12.68
2022-10-15T20:00:16.295Z,11.20
2022-10-15T20:02:42.927Z,11.23
2022-10-15T20:05:16.575Z,10.23
2022-10-15T20:07:43.188Z,9.40
2022-10-15T20:10:10.585Z,10.98
2022-10-15T20:12:43.600Z,8.88
2022-10-15T20:15:10.699Z,10.77
2022-10-15T20:17:50.520Z,10.90
2022-10-15T20:20:23.924Z,11.02
2022-10-15T20:25:49.500Z,11.10
2022-10-15T20:28:18.256Z,11.80
2022-10-15T20:30:45.801Z,10.27
2022-10-15T20:33:19.537Z,10.77
2022-10-15T20:35:53.514Z,10.18
2022-10-15T20:38:20.137Z,13.50
2022-10-15T20:40:53.531Z,9.32
2022-10-15T20:43:21.931Z,9.52
2022-10-15T20:45:48.593Z,10.10
2022-10-15T20:48:34.583Z,9.43
2022-10-15T20:51:01.375Z,12.13
2022-10-15T20:53:29.093Z,9.40
2022-10-15T20:56:02.508Z,10.35
2022-10-15T20:58:36.595Z,9.55
2022-10-15T21:01:03.897Z,9.68
2022-10-15T21:03:37.543Z,9.40
2022-10-15T21:06:04.342Z,8.98
2022-10-15T21:08:30.958Z,9.30
2022-10-15T21:11:11.512Z,7.95
2022-10-15T21:13:38.093Z,9.45
2022-10-15T21:16:13.558Z,8.82
2022-10-15T21:18:46.525Z,8.20
2022-10-15T21:21:26.518Z,5.95
2022-10-15T21:23:59.511Z,6.13
2022-10-15T21:26:26.220Z,6.22
2022-10-15T21:29:03.625Z,6.18
2022-10-15T21:31:30.324Z,5.65
2022-10-15T21:34:04.528Z,5.55
2022-10-15T21:36:31.091Z,7.57
2022-10-15T21:39:10.527Z,5.53
2022-10-15T21:41:38.911Z,7.23
2022-10-15T21:44:07.086Z,5.30
2022-10-15T21:46:41.602Z,6.93
2022-10-15T21:49:08.454Z,5.18
2022-10-15T21:51:42.572Z,6.13
2022-10-15T21:54:09.453Z,5.15
2022-10-15T21:56:43.509Z,4.95
2022-10-15T21:59:10.401Z,9.20
2022-10-15T22:01:39.984Z,7.88
2022-10-15T22:04:15.535Z,5.40
2022-10-15T22:06:42.308Z,5.75
2022-10-15T22:09:10.329Z,5.45
2022-10-15T22:11:46.539Z,5.78
2022-10-15T22:14:20.509Z,7.20
2022-10-15T22:16:47.079Z,5.10
2022-10-15T22:19:28.578Z,4.97
2022-10-15T22:21:55.156Z,5.32
2022-10-15T22:24:21.818Z,4.78
2022-10-15T22:26:57.519Z,5.30
2022-10-15T22:29:35.539Z,4.40
2022-10-15T22:32:09.570Z,5.90
2022-10-15T22:34:42.520Z,5.07
2022-10-15T22:37:09.181Z,7.85
2022-10-15T22:39:35.782Z,4.93
2022-10-15T22:42:09.889Z,4.88
2022-10-15T22:44:36.470Z,4.78
2022-10-15T22:47:03.059Z,3.97
2022-10-15T22:49:36.580Z,4.43
2022-10-15T22:52:03.345Z,3.38
2022-10-15T22:54:29.958Z,3.80
2022-10-15T22:57:03.539Z,3.85
2022-10-15T22:59:30.112Z,3.30
2022-10-15T23:02:03.558Z,3.30
2022-10-15T23:04:30.266Z,3.40
2022-10-15T23:06:56.950Z,7.15
2022-10-15T23:09:30.605Z,3.67
2022-10-15T23:11:57.213Z,3.70
2022-10-15T23:14:30.569Z,2.90
2022-10-15T23:16:57.157Z,3.30
2022-10-15T23:19:36.573Z,3.28
2022-10-15T23:22:03.421Z,3.90
2022-10-15T23:24:36.612Z,3.40
2022-10-15T23:27:03.302Z,4.68
2022-10-15T23:29:29.878Z,3.22
2022-10-15T23:32:02.571Z,3.97
2022-10-15T23:34:35.580Z,3.20
2022-10-15T23:37:08.606Z,3.45
2022-10-15T23:39:41.583Z,5.97
2022-10-15T23:42:08.166Z,3.58
2022-10-15T23:44:34.814Z,4.63
2022-10-15T23:47:07.569Z,3.22
2022-10-15T23:49:34.288Z,3.35
2022-10-15T23:52:07.581Z,4.45
2022-10-15T23:54:34.156Z,4.25
2022-10-15T23:57:01.380Z,3.83
2022-10-15T23:59:34.522Z,4.25
